Soul City, North Carolina
Current Conditions -  °F | °C
As of 10:35 AM on Monday 22 Dec 2014 (Local Time) from KHNZ Reporting Station
Haze Haze  
Wind Chill: 29°   Ceiling: 500
Heat Index: 36°   Visibility: 1.5mi
Dew Point: 34°   Wind: 8mph
Humidity: 93%   Direction: 30°NNE
Pressure: 30.16"   Gusts: NA
Location:  36.4679°N, 78.2938°W
Report Text: KHNZ 221535Z AUTO 03007KT 1 1/2SM BR OVC005 02/01 A3016 RMK AO2 T00200010
Loading
Personal Weather Stations






























Interactive Weather Map New forecast layout! Learn more

10-Day Weather Forecast

Advertisements
Track Severe Weather on mobile